sensor_id;sensor_type;location;lat;lon;timestamp;P1;durP1;ratioP1;P2;durP2;ratioP2
41568;SDS011;27283;52.504;13.358;2023-06-01T00:02:30;8.65;;;2.33;;
41568;SDS011;27283;52.504;13.358;2023-06-01T00:05:03;5.13;;;2.50;;
41568;SDS011;27283;52.504;13.358;2023-06-01T00:07:36;6.72;;;2.60;;
41568;SDS011;27283;52.504;13.358;2023-06-01T00:10:09;7.38;;;2.40;;
41568;SDS011;27283;52.504;13.358;2023-06-01T00:12:45;5.78;;;2.35;;
41568;SDS011;27283;52.504;13.358;2023-06-01T00:15:21;8.48;;;2.58;;
41568;SDS011;27283;52.504;13.358;2023-06-01T00:17:53;5.07;;;2.60;;
41568;SDS011;27283;52.504;13.358;2023-06-01T00:20:32;4.53;;;2.50;;
41568;SDS011;27283;52.504;13.358;2023-06-01T00:23:07;8.20;;;2.33;;
41568;SDS011;27283;52.504;13.358;2023-06-01T00:25:40;7.25;;;2.63;;
41568;SDS011;27283;52.504;13.358;2023-06-01T00:28:14;5.70;;;2.50;;
41568;SDS011;27283;52.504;13.358;2023-06-01T00:30:47;5.28;;;2.58;;
41568;SDS011;27283;52.504;13.358;2023-06-01T00:33:20;7.35;;;2.42;;
41568;SDS011;27283;52.504;13.358;2023-06-01T00:35:52;5.15;;;2.72;;
41568;SDS011;27283;52.504;13.358;2023-06-01T00:38:24;6.82;;;2.30;;
41568;SDS011;27283;52.504;13.358;2023-06-01T00:41:00;7.45;;;2.35;;
41568;SDS011;27283;52.504;13.358;2023-06-01T00:43:35;5.43;;;2.50;;
41568;SDS011;27283;52.504;13.358;2023-06-01T00:46:08;7.32;;;2.10;;
41568;SDS011;27283;52.504;13.358;2023-06-01T00:48:42;4.57;;;2.40;;
41568;SDS011;27283;52.504;13.358;2023-06-01T00:51:15;6.60;;;2.30;;
41568;SDS011;27283;52.504;13.358;2023-06-01T00:53:47;5.95;;;2.50;;
41568;SDS011;27283;52.504;13.358;2023-06-01T00:56:20;6.75;;;2.65;;
41568;SDS011;27283;52.504;13.358;2023-06-01T00:58:55;7.20;;;2.30;;
41568;SDS011;27283;52.504;13.358;2023-06-01T01:01:48;8.68;;;2.80;;
41568;SDS011;27283;52.504;13.358;2023-06-01T01:04:20;7.55;;;2.63;;
41568;SDS011;27283;52.504;13.358;2023-06-01T01:06:56;5.80;;;2.42;;
41568;SDS011;27283;52.504;13.358;2023-06-01T01:09:39;6.22;;;2.60;;
41568;SDS011;27283;52.504;13.358;2023-06-01T01:12:17;13.57;;;2.95;;
41568;SDS011;27283;52.504;13.358;2023-06-01T01:15:04;6.50;;;2.45;;
41568;SDS011;27283;52.504;13.358;2023-06-01T01:17:44;7.40;;;2.38;;
41568;SDS011;27283;52.504;13.358;2023-06-01T01:20:21;7.75;;;2.85;;
41568;SDS011;27283;52.504;13.358;2023-06-01T01:23:02;6.70;;;2.80;;
41568;SDS011;27283;52.504;13.358;2023-06-01T01:25:52;6.78;;;2.88;;
41568;SDS011;27283;52.504;13.358;2023-06-01T01:28:44;9.70;;;3.00;;
41568;SDS011;27283;52.504;13.358;2023-06-01T01:31:22;6.20;;;2.50;;
41568;SDS011;27283;52.504;13.358;2023-06-01T01:33:56;8.50;;;2.53;;
41568;SDS011;27283;52.504;13.358;2023-06-01T01:36:29;6.10;;;2.80;;
41568;SDS011;27283;52.504;13.358;2023-06-01T01:39:03;10.05;;;2.72;;
41568;SDS011;27283;52.504;13.358;2023-06-01T01:41:35;8.20;;;2.72;;
41568;SDS011;27283;52.504;13.358;2023-06-01T01:44:11;11.60;;;2.70;;
41568;SDS011;27283;52.504;13.358;2023-06-01T01:46:47;11.70;;;3.17;;
41568;SDS011;27283;52.504;13.358;2023-06-01T01:49:26;8.70;;;3.40;;
41568;SDS011;27283;52.504;13.358;2023-06-01T01:52:03;6.97;;;3.08;;
41568;SDS011;27283;52.504;13.358;2023-06-01T01:54:41;5.65;;;2.83;;
41568;SDS011;27283;52.504;13.358;2023-06-01T01:57:15;5.95;;;2.85;;
41568;SDS011;27283;52.504;13.358;2023-06-01T01:59:53;6.82;;;2.97;;
41568;SDS011;27283;52.504;13.358;2023-06-01T02:02:26;7.85;;;3.03;;
41568;SDS011;27283;52.504;13.358;2023-06-01T02:05:03;9.93;;;3.50;;
41568;SDS011;27283;52.504;13.358;2023-06-01T02:07:39;9.25;;;3.53;;
41568;SDS011;27283;52.504;13.358;2023-06-01T02:10:12;8.05;;;3.20;;
41568;SDS011;27283;52.504;13.358;2023-06-01T02:12:44;9.93;;;3.17;;
41568;SDS011;27283;52.504;13.358;2023-06-01T02:15:24;8.95;;;3.63;;
41568;SDS011;27283;52.504;13.358;2023-06-01T02:17:56;13.52;;;3.88;;
41568;SDS011;27283;52.504;13.358;2023-06-01T02:20:29;11.07;;;3.65;;
41568;SDS011;27283;52.504;13.358;2023-06-01T02:23:02;11.55;;;3.65;;
41568;SDS011;27283;52.504;13.358;2023-06-01T02:25:35;13.35;;;3.70;;
41568;SDS011;27283;52.504;13.358;2023-06-01T02:28:07;13.48;;;4.50;;
41568;SDS011;27283;52.504;13.358;2023-06-01T02:30:43;11.57;;;3.90;;
41568;SDS011;27283;52.504;13.358;2023-06-01T02:33:17;11.60;;;4.15;;
41568;SDS011;27283;52.504;13.358;2023-06-01T02:35:54;9.95;;;3.97;;
41568;SDS011;27283;52.504;13.358;2023-06-01T02:38:26;9.80;;;4.47;;
41568;SDS011;27283;52.504;13.358;2023-06-01T02:41:04;11.48;;;4.40;;
41568;SDS011;27283;52.504;13.358;2023-06-01T02:43:36;12.52;;;4.43;;
41568;SDS011;27283;52.504;13.358;2023-06-01T02:46:12;14.50;;;4.45;;
41568;SDS011;27283;52.504;13.358;2023-06-01T02:48:47;8.77;;;4.18;;
41568;SDS011;27283;52.504;13.358;2023-06-01T02:51:36;12.82;;;4.22;;
41568;SDS011;27283;52.504;13.358;2023-06-01T02:54:08;12.85;;;4.90;;
41568;SDS011;27283;52.504;13.358;2023-06-01T02:56:41;12.40;;;4.20;;
41568;SDS011;27283;52.504;13.358;2023-06-01T02:59:14;9.70;;;4.43;;
41568;SDS011;27283;52.504;13.358;2023-06-01T03:01:49;12.00;;;4.68;;
41568;SDS011;27283;52.504;13.358;2023-06-01T03:04:21;13.70;;;4.97;;
41568;SDS011;27283;52.504;13.358;2023-06-01T03:07:00;14.40;;;5.10;;
41568;SDS011;27283;52.504;13.358;2023-06-01T03:09:35;12.73;;;5.57;;
41568;SDS011;27283;52.504;13.358;2023-06-01T03:12:08;13.57;;;5.97;;
41568;SDS011;27283;52.504;13.358;2023-06-01T03:14:41;12.63;;;5.35;;
41568;SDS011;27283;52.504;13.358;2023-06-01T03:17:21;13.45;;;5.50;;
41568;SDS011;27283;52.504;13.358;2023-06-01T03:19:53;14.25;;;5.95;;
41568;SDS011;27283;52.504;13.358;2023-06-01T03:22:25;15.32;;;6.05;;
41568;SDS011;27283;52.504;13.358;2023-06-01T03:24:57;13.25;;;6.25;;
41568;SDS011;27283;52.504;13.358;2023-06-01T03:27:35;14.77;;;6.47;;
41568;SDS011;27283;52.504;13.358;2023-06-01T03:30:08;13.02;;;6.63;;
41568;SDS011;27283;52.504;13.358;2023-06-01T03:32:44;15.73;;;6.55;;
41568;SDS011;27283;52.504;13.358;2023-06-01T03:35:17;16.25;;;7.07;;
41568;SDS011;27283;52.504;13.358;2023-06-01T03:37:49;22.02;;;7.45;;
41568;SDS011;27283;52.504;13.358;2023-06-01T03:40:21;17.00;;;6.97;;
41568;SDS011;27283;52.504;13.358;2023-06-01T03:42:55;19.67;;;8.00;;
41568;SDS011;27283;52.504;13.358;2023-06-01T03:45:45;17.35;;;7.70;;
41568;SDS011;27283;52.504;13.358;2023-06-01T03:48:20;21.33;;;8.40;;
41568;SDS011;27283;52.504;13.358;2023-06-01T03:50:52;24.13;;;8.68;;
41568;SDS011;27283;52.504;13.358;2023-06-01T03:53:33;23.83;;;8.60;;
41568;SDS011;27283;52.504;13.358;2023-06-01T03:56:06;17.15;;;7.47;;
41568;SDS011;27283;52.504;13.358;2023-06-01T03:58:38;21.52;;;8.45;;
41568;SDS011;27283;52.504;13.358;2023-06-01T04:01:10;27.35;;;8.70;;
41568;SDS011;27283;52.504;13.358;2023-06-01T04:06:41;21.45;;;8.40;;
41568;SDS011;27283;52.504;13.358;2023-06-01T04:09:14;21.00;;;9.05;;
41568;SDS011;27283;52.504;13.358;2023-06-01T04:11:47;25.27;;;8.55;;
41568;SDS011;27283;52.504;13.358;2023-06-01T04:14:19;22.90;;;8.43;;
41568;SDS011;27283;52.504;13.358;2023-06-01T04:16:51;24.73;;;9.50;;
41568;SDS011;27283;52.504;13.358;2023-06-01T04:19:28;28.33;;;9.38;;
41568;SDS011;27283;52.504;13.358;2023-06-01T04:22:03;25.02;;;9.23;;
41568;SDS011;27283;52.504;13.358;2023-06-01T04:24:36;24.02;;;9.27;;
41568;SDS011;27283;52.504;13.358;2023-06-01T04:27:08;22.77;;;9.88;;
41568;SDS011;27283;52.504;13.358;2023-06-01T04:29:44;20.58;;;9.73;;
41568;SDS011;27283;52.504;13.358;2023-06-01T04:32:16;20.98;;;9.52;;
41568;SDS011;27283;52.504;13.358;2023-06-01T04:34:53;24.13;;;11.40;;
41568;SDS011;27283;52.504;13.358;2023-06-01T04:37:25;30.10;;;10.68;;
41568;SDS011;27283;52.504;13.358;2023-06-01T04:39:58;27.23;;;11.38;;
41568;SDS011;27283;52.504;13.358;2023-06-01T04:42:34;28.75;;;12.35;;
41568;SDS011;27283;52.504;13.358;2023-06-01T04:45:16;32.30;;;13.20;;
41568;SDS011;27283;52.504;13.358;2023-06-01T04:47:50;36.45;;;13.40;;
41568;SDS011;27283;52.504;13.358;2023-06-01T04:50:31;31.85;;;12.98;;
41568;SDS011;27283;52.504;13.358;2023-06-01T04:53:06;37.65;;;13.50;;
41568;SDS011;27283;52.504;13.358;2023-06-01T04:55:38;36.45;;;16.38;;
41568;SDS011;27283;52.504;13.358;2023-06-01T04:58:14;32.03;;;15.23;;
41568;SDS011;27283;52.504;13.358;2023-06-01T05:00:47;34.53;;;14.52;;
41568;SDS011;27283;52.504;13.358;2023-06-01T05:03:19;36.25;;;14.18;;
41568;SDS011;27283;52.504;13.358;2023-06-01T05:05:55;33.45;;;14.55;;
41568;SDS011;27283;52.504;13.358;2023-06-01T05:08:27;34.08;;;15.65;;
41568;SDS011;27283;52.504;13.358;2023-06-01T05:11:00;27.80;;;13.32;;
41568;SDS011;27283;52.504;13.358;2023-06-01T05:13:33;37.60;;;18.00;;
41568;SDS011;27283;52.504;13.358;2023-06-01T05:16:08;33.53;;;15.38;;
41568;SDS011;27283;52.504;13.358;2023-06-01T05:18:40;33.70;;;16.10;;
41568;SDS011;27283;52.504;13.358;2023-06-01T05:21:16;38.72;;;17.48;;
41568;SDS011;27283;52.504;13.358;2023-06-01T05:23:49;35.88;;;15.70;;
41568;SDS011;27283;52.504;13.358;2023-06-01T05:26:22;32.85;;;14.82;;
41568;SDS011;27283;52.504;13.358;2023-06-01T05:28:55;35.88;;;15.90;;
41568;SDS011;27283;52.504;13.358;2023-06-01T05:31:28;29.77;;;13.57;;
41568;SDS011;27283;52.504;13.358;2023-06-01T05:34:01;36.13;;;17.20;;
41568;SDS011;27283;52.504;13.358;2023-06-01T05:36:36;34.72;;;16.48;;
41568;SDS011;27283;52.504;13.358;2023-06-01T05:39:09;28.48;;;12.82;;
41568;SDS011;27283;52.504;13.358;2023-06-01T05:41:43;26.27;;;11.98;;
41568;SDS011;27283;52.504;13.358;2023-06-01T05:44:15;27.33;;;11.35;;
41568;SDS011;27283;52.504;13.358;2023-06-01T05:46:50;23.27;;;10.57;;
41568;SDS011;27283;52.504;13.358;2023-06-01T05:49:24;21.88;;;10.07;;
41568;SDS011;27283;52.504;13.358;2023-06-01T05:52:07;21.27;;;9.82;;
41568;SDS011;27283;52.504;13.358;2023-06-01T05:54:42;25.05;;;9.40;;
41568;SDS011;27283;52.504;13.358;2023-06-01T05:57:18;23.67;;;10.30;;
41568;SDS011;27283;52.504;13.358;2023-06-01T05:59:52;21.73;;;8.73;;
41568;SDS011;27283;52.504;13.358;2023-06-01T06:02:26;23.38;;;10.20;;
41568;SDS011;27283;52.504;13.358;2023-06-01T06:05:01;23.92;;;9.55;;
41568;SDS011;27283;52.504;13.358;2023-06-01T06:07:38;17.63;;;8.80;;
41568;SDS011;27283;52.504;13.358;2023-06-01T06:10:11;20.17;;;8.20;;
41568;SDS011;27283;52.504;13.358;2023-06-01T06:12:45;23.85;;;8.60;;
41568;SDS011;27283;52.504;13.358;2023-06-01T06:15:20;19.67;;;7.90;;
41568;SDS011;27283;52.504;13.358;2023-06-01T06:18:06;18.60;;;9.32;;
41568;SDS011;27283;52.504;13.358;2023-06-01T06:20:42;22.95;;;8.32;;
41568;SDS011;27283;52.504;13.358;2023-06-01T06:23:17;25.48;;;8.18;;
41568;SDS011;27283;52.504;13.358;2023-06-01T06:26:03;23.63;;;9.90;;
41568;SDS011;27283;52.504;13.358;2023-06-01T06:28:36;21.13;;;9.02;;
41568;SDS011;27283;52.504;13.358;2023-06-01T06:31:09;19.77;;;7.90;;
41568;SDS011;27283;52.504;13.358;2023-06-01T06:33:42;20.10;;;8.85;;
41568;SDS011;27283;52.504;13.358;2023-06-01T06:36:14;20.85;;;8.15;;
41568;SDS011;27283;52.504;13.358;2023-06-01T06:38:50;21.67;;;8.45;;
41568;SDS011;27283;52.504;13.358;2023-06-01T06:41:22;20.23;;;8.73;;
41568;SDS011;27283;52.504;13.358;2023-06-01T06:43:56;17.05;;;7.60;;
41568;SDS011;27283;52.504;13.358;2023-06-01T06:46:28;19.30;;;8.55;;
41568;SDS011;27283;52.504;13.358;2023-06-01T06:49:01;18.42;;;8.38;;
41568;SDS011;27283;52.504;13.358;2023-06-01T06:51:34;19.73;;;7.72;;
41568;SDS011;27283;52.504;13.358;2023-06-01T06:54:11;15.85;;;7.18;;
41568;SDS011;27283;52.504;13.358;2023-06-01T06:56:48;20.35;;;8.10;;
41568;SDS011;27283;52.504;13.358;2023-06-01T06:59:21;20.30;;;6.93;;
41568;SDS011;27283;52.504;13.358;2023-06-01T07:01:53;15.57;;;6.38;;
41568;SDS011;27283;52.504;13.358;2023-06-01T07:04:29;13.23;;;5.68;;
41568;SDS011;27283;52.504;13.358;2023-06-01T07:07:02;16.67;;;6.13;;
41568;SDS011;27283;52.504;13.358;2023-06-01T07:09:38;14.32;;;5.95;;
41568;SDS011;27283;52.504;13.358;2023-06-01T07:12:13;15.38;;;6.45;;
41568;SDS011;27283;52.504;13.358;2023-06-01T07:14:46;19.30;;;6.15;;
41568;SDS011;27283;52.504;13.358;2023-06-01T07:17:20;17.17;;;5.70;;
41568;SDS011;27283;52.504;13.358;2023-06-01T07:19:53;14.93;;;6.30;;
41568;SDS011;27283;52.504;13.358;2023-06-01T07:22:25;15.55;;;5.80;;
41568;SDS011;27283;52.504;13.358;2023-06-01T07:25:00;19.35;;;6.93;;
41568;SDS011;27283;52.504;13.358;2023-06-01T07:27:33;15.65;;;6.43;;
41568;SDS011;27283;52.504;13.358;2023-06-01T07:30:06;12.73;;;5.97;;
41568;SDS011;27283;52.504;13.358;2023-06-01T07:32:40;18.73;;;6.57;;
41568;SDS011;27283;52.504;13.358;2023-06-01T07:35:13;14.88;;;6.60;;
41568;SDS011;27283;52.504;13.358;2023-06-01T07:37:46;17.40;;;6.30;;
41568;SDS011;27283;52.504;13.358;2023-06-01T07:40:21;15.43;;;6.82;;
41568;SDS011;27283;52.504;13.358;2023-06-01T07:42:53;18.65;;;6.57;;
41568;SDS011;27283;52.504;13.358;2023-06-01T07:45:29;15.68;;;6.45;;
41568;SDS011;27283;52.504;13.358;2023-06-01T07:48:10;20.60;;;7.40;;
41568;SDS011;27283;52.504;13.358;2023-06-01T07:50:43;20.73;;;7.60;;
41568;SDS011;27283;52.504;13.358;2023-06-01T07:53:18;17.50;;;6.15;;
41568;SDS011;27283;52.504;13.358;2023-06-01T07:55:56;20.92;;;7.05;;
41568;SDS011;27283;52.504;13.358;2023-06-01T07:58:29;14.90;;;6.95;;
41568;SDS011;27283;52.504;13.358;2023-06-01T08:01:01;16.23;;;7.15;;
41568;SDS011;27283;52.504;13.358;2023-06-01T08:03:34;15.57;;;6.43;;
41568;SDS011;27283;52.504;13.358;2023-06-01T08:06:07;16.55;;;6.78;;
41568;SDS011;27283;52.504;13.358;2023-06-01T08:08:39;13.68;;;6.57;;
41568;SDS011;27283;52.504;13.358;2023-06-01T08:11:15;13.70;;;6.03;;
41568;SDS011;27283;52.504;13.358;2023-06-01T08:13:47;14.23;;;6.95;;
41568;SDS011;27283;52.504;13.358;2023-06-01T08:16:21;14.68;;;6.88;;
41568;SDS011;27283;52.504;13.358;2023-06-01T08:18:56;15.02;;;6.57;;
41568;SDS011;27283;52.504;13.358;2023-06-01T08:21:29;14.40;;;6.57;;
41568;SDS011;27283;52.504;13.358;2023-06-01T08:24:01;16.02;;;6.32;;
41568;SDS011;27283;52.504;13.358;2023-06-01T08:26:36;18.40;;;5.88;;
41568;SDS011;27283;52.504;13.358;2023-06-01T08:29:09;12.85;;;6.32;;
41568;SDS011;27283;52.504;13.358;2023-06-01T08:31:42;13.27;;;6.40;;
41568;SDS011;27283;52.504;13.358;2023-06-01T08:34:14;15.05;;;6.00;;
41568;SDS011;27283;52.504;13.358;2023-06-01T08:36:46;16.50;;;6.47;;
41568;SDS011;27283;52.504;13.358;2023-06-01T08:39:35;14.85;;;6.03;;
41568;SDS011;27283;52.504;13.358;2023-06-01T08:42:12;18.85;;;6.40;;
41568;SDS011;27283;52.504;13.358;2023-06-01T08:45:25;16.80;;;5.88;;
41568;SDS011;27283;52.504;13.358;2023-06-01T08:47:58;11.80;;;5.70;;
41568;SDS011;27283;52.504;13.358;2023-06-01T08:50:32;15.35;;;6.05;;
41568;SDS011;27283;52.504;13.358;2023-06-01T08:53:05;17.95;;;5.85;;
41568;SDS011;27283;52.504;13.358;2023-06-01T08:55:38;15.30;;;5.53;;
41568;SDS011;27283;52.504;13.358;2023-06-01T08:58:13;17.13;;;5.60;;
41568;SDS011;27283;52.504;13.358;2023-06-01T09:00:47;13.20;;;5.97;;
41568;SDS011;27283;52.504;13.358;2023-06-01T09:03:25;17.83;;;6.00;;
41568;SDS011;27283;52.504;13.358;2023-06-01T09:05:59;15.02;;;6.00;;
41568;SDS011;27283;52.504;13.358;2023-06-01T09:08:34;13.68;;;5.63;;
41568;SDS011;27283;52.504;13.358;2023-06-01T09:11:09;14.63;;;5.35;;
41568;SDS011;27283;52.504;13.358;2023-06-01T09:13:44;15.82;;;6.55;;
41568;SDS011;27283;52.504;13.358;2023-06-01T09:16:20;13.45;;;5.50;;
41568;SDS011;27283;52.504;13.358;2023-06-01T09:19:17;11.85;;;5.90;;
41568;SDS011;27283;52.504;13.358;2023-06-01T09:21:57;15.65;;;6.00;;
41568;SDS011;27283;52.504;13.358;2023-06-01T09:24:31;11.18;;;5.80;;
41568;SDS011;27283;52.504;13.358;2023-06-01T09:27:04;16.35;;;6.70;;
41568;SDS011;27283;52.504;13.358;2023-06-01T09:29:40;15.02;;;5.88;;
41568;SDS011;27283;52.504;13.358;2023-06-01T09:32:24;13.48;;;6.47;;
41568;SDS011;27283;52.504;13.358;2023-06-01T09:34:59;12.18;;;6.20;;
41568;SDS011;27283;52.504;13.358;2023-06-01T09:37:36;18.40;;;5.85;;
41568;SDS011;27283;52.504;13.358;2023-06-01T09:40:16;22.25;;;6.57;;
41568;SDS011;27283;52.504;13.358;2023-06-01T09:42:49;21.85;;;6.95;;
41568;SDS011;27283;52.504;13.358;2023-06-01T09:45:25;15.25;;;6.70;;
41568;SDS011;27283;52.504;13.358;2023-06-01T09:50:52;18.63;;;7.60;;
41568;SDS011;27283;52.504;13.358;2023-06-01T09:53:41;15.15;;;8.05;;
41568;SDS011;27283;52.504;13.358;2023-06-01T09:56:14;21.15;;;8.68;;
41568;SDS011;27283;52.504;13.358;2023-06-01T09:58:47;18.33;;;8.50;;
41568;SDS011;27283;52.504;13.358;2023-06-01T10:01:33;20.38;;;9.65;;
41568;SDS011;27283;52.504;13.358;2023-06-01T10:04:05;18.27;;;9.43;;
41568;SDS011;27283;52.504;13.358;2023-06-01T10:06:41;19.17;;;8.63;;
41568;SDS011;27283;52.504;13.358;2023-06-01T10:09:14;21.77;;;10.43;;
41568;SDS011;27283;52.504;13.358;2023-06-01T10:11:49;20.38;;;10.57;;
41568;SDS011;27283;52.504;13.358;2023-06-01T10:14:25;19.42;;;9.43;;
41568;SDS011;27283;52.504;13.358;2023-06-01T10:17:01;17.50;;;9.50;;
41568;SDS011;27283;52.504;13.358;2023-06-01T10:19:37;20.15;;;9.80;;
41568;SDS011;27283;52.504;13.358;2023-06-01T10:22:11;17.80;;;9.80;;
41568;SDS011;27283;52.504;13.358;2023-06-01T10:24:44;18.50;;;10.05;;
41568;SDS011;27283;52.504;13.358;2023-06-01T10:27:22;19.13;;;9.93;;
41568;SDS011;27283;52.504;13.358;2023-06-01T10:29:58;19.95;;;10.18;;
41568;SDS011;27283;52.504;13.358;2023-06-01T10:32:46;20.63;;;10.60;;
41568;SDS011;27283;52.504;13.358;2023-06-01T10:38:36;19.98;;;10.77;;
41568;SDS011;27283;52.504;13.358;2023-06-01T10:44:02;23.88;;;10.57;;
41568;SDS011;27283;52.504;13.358;2023-06-01T10:46:38;15.63;;;9.98;;
41568;SDS011;27283;52.504;13.358;2023-06-01T10:52:45;19.55;;;10.98;;
41568;SDS011;27283;52.504;13.358;2023-06-01T10:55:21;22.05;;;11.18;;
41568;SDS011;27283;52.504;13.358;2023-06-01T11:01:01;21.00;;;10.95;;
41568;SDS011;27283;52.504;13.358;2023-06-01T11:03:44;17.92;;;10.65;;
41568;SDS011;27283;52.504;13.358;2023-06-01T11:06:25;19.75;;;10.55;;
41568;SDS011;27283;52.504;13.358;2023-06-01T11:09:08;20.02;;;10.75;;
41568;SDS011;27283;52.504;13.358;2023-06-01T11:14:31;18.23;;;10.43;;
41568;SDS011;27283;52.504;13.358;2023-06-01T11:20:01;23.52;;;11.05;;
41568;SDS011;27283;52.504;13.358;2023-06-01T11:22:42;21.55;;;11.15;;
41568;SDS011;27283;52.504;13.358;2023-06-01T11:25:17;16.33;;;10.82;;
41568;SDS011;27283;52.504;13.358;2023-06-01T11:27:53;18.63;;;9.75;;
41568;SDS011;27283;52.504;13.358;2023-06-01T11:30:26;16.25;;;9.52;;
41568;SDS011;27283;52.504;13.358;2023-06-01T11:32:58;19.35;;;9.80;;
41568;SDS011;27283;52.504;13.358;2023-06-01T11:35:32;18.00;;;10.40;;
41568;SDS011;27283;52.504;13.358;2023-06-01T11:38:14;20.52;;;10.90;;
41568;SDS011;27283;52.504;13.358;2023-06-01T11:40:57;20.10;;;11.10;;
41568;SDS011;27283;52.504;13.358;2023-06-01T11:43:32;17.80;;;9.68;;
41568;SDS011;27283;52.504;13.358;2023-06-01T11:46:06;17.15;;;9.68;;
41568;SDS011;27283;52.504;13.358;2023-06-01T11:48:58;18.92;;;9.38;;
41568;SDS011;27283;52.504;13.358;2023-06-01T11:51:35;18.50;;;9.43;;
41568;SDS011;27283;52.504;13.358;2023-06-01T11:54:12;21.45;;;9.55;;
41568;SDS011;27283;52.504;13.358;2023-06-01T11:56:44;16.38;;;8.70;;
41568;SDS011;27283;52.504;13.358;2023-06-01T11:59:17;18.13;;;9.38;;
41568;SDS011;27283;52.504;13.358;2023-06-01T12:01:50;21.58;;;10.23;;
41568;SDS011;27283;52.504;13.358;2023-06-01T12:04:25;17.83;;;9.35;;
41568;SDS011;27283;52.504;13.358;2023-06-01T12:07:04;17.88;;;8.73;;
41568;SDS011;27283;52.504;13.358;2023-06-01T12:09:42;18.50;;;9.50;;
41568;SDS011;27283;52.504;13.358;2023-06-01T12:12:17;20.05;;;8.90;;
41568;SDS011;27283;52.504;13.358;2023-06-01T12:14:50;18.95;;;8.20;;
41568;SDS011;27283;52.504;13.358;2023-06-01T12:17:22;13.88;;;8.30;;
41568;SDS011;27283;52.504;13.358;2023-06-01T12:19:55;17.52;;;9.05;;
41568;SDS011;27283;52.504;13.358;2023-06-01T12:22:30;15.70;;;8.13;;
41568;SDS011;27283;52.504;13.358;2023-06-01T12:25:09;17.73;;;8.35;;
41568;SDS011;27283;52.504;13.358;2023-06-01T12:27:42;15.25;;;7.90;;
41568;SDS011;27283;52.504;13.358;2023-06-01T12:30:21;15.90;;;7.70;;
41568;SDS011;27283;52.504;13.358;2023-06-01T12:32:54;17.00;;;8.15;;
41568;SDS011;27283;52.504;13.358;2023-06-01T12:35:28;13.07;;;7.53;;
41568;SDS011;27283;52.504;13.358;2023-06-01T12:38:04;14.98;;;7.95;;
41568;SDS011;27283;52.504;13.358;2023-06-01T12:40:44;14.68;;;7.57;;
41568;SDS011;27283;52.504;13.358;2023-06-01T12:43:19;13.90;;;8.07;;
41568;SDS011;27283;52.504;13.358;2023-06-01T12:45:54;15.65;;;7.90;;
41568;SDS011;27283;52.504;13.358;2023-06-01T12:48:30;14.20;;;7.72;;
41568;SDS011;27283;52.504;13.358;2023-06-01T12:51:15;16.42;;;7.85;;
41568;SDS011;27283;52.504;13.358;2023-06-01T12:53:48;17.67;;;7.75;;
41568;SDS011;27283;52.504;13.358;2023-06-01T12:56:23;16.15;;;7.10;;
41568;SDS011;27283;52.504;13.358;2023-06-01T12:58:56;16.15;;;7.38;;
41568;SDS011;27283;52.504;13.358;2023-06-01T13:01:28;15.48;;;7.65;;
41568;SDS011;27283;52.504;13.358;2023-06-01T13:04:11;14.30;;;6.75;;
41568;SDS011;27283;52.504;13.358;2023-06-01T13:06:47;15.27;;;7.07;;
41568;SDS011;27283;52.504;13.358;2023-06-01T13:09:20;16.20;;;7.18;;
41568;SDS011;27283;52.504;13.358;2023-06-01T13:11:55;15.75;;;6.47;;
41568;SDS011;27283;52.504;13.358;2023-06-01T13:14:27;13.60;;;6.68;;
41568;SDS011;27283;52.504;13.358;2023-06-01T13:17:01;15.45;;;6.75;;
41568;SDS011;27283;52.504;13.358;2023-06-01T13:19:33;17.33;;;6.78;;
41568;SDS011;27283;52.504;13.358;2023-06-01T13:22:08;11.98;;;6.43;;
41568;SDS011;27283;52.504;13.358;2023-06-01T13:24:41;14.43;;;6.38;;
41568;SDS011;27283;52.504;13.358;2023-06-01T13:27:34;12.25;;;6.47;;
41568;SDS011;27283;52.504;13.358;2023-06-01T13:30:07;15.40;;;6.05;;
41568;SDS011;27283;52.504;13.358;2023-06-01T13:32:44;15.80;;;6.20;;
41568;SDS011;27283;52.504;13.358;2023-06-01T13:35:18;14.70;;;6.75;;
41568;SDS011;27283;52.504;13.358;2023-06-01T13:38:04;14.48;;;5.95;;
41568;SDS011;27283;52.504;13.358;2023-06-01T13:40:36;15.23;;;6.30;;
41568;SDS011;27283;52.504;13.358;2023-06-01T13:43:11;15.77;;;6.45;;
41568;SDS011;27283;52.504;13.358;2023-06-01T13:45:43;12.98;;;6.13;;
41568;SDS011;27283;52.504;13.358;2023-06-01T13:48:16;13.15;;;5.78;;
41568;SDS011;27283;52.504;13.358;2023-06-01T13:50:48;14.02;;;5.85;;
41568;SDS011;27283;52.504;13.358;2023-06-01T13:53:21;12.50;;;6.20;;
41568;SDS011;27283;52.504;13.358;2023-06-01T13:55:53;13.88;;;6.20;;
41568;SDS011;27283;52.504;13.358;2023-06-01T13:58:30;12.95;;;5.93;;
41568;SDS011;27283;52.504;13.358;2023-06-01T14:01:03;14.45;;;6.50;;
41568;SDS011;27283;52.504;13.358;2023-06-01T14:03:36;11.00;;;5.88;;
41568;SDS011;27283;52.504;13.358;2023-06-01T14:06:08;13.15;;;5.53;;
41568;SDS011;27283;52.504;13.358;2023-06-01T14:08:40;13.25;;;6.13;;
41568;SDS011;27283;52.504;13.358;2023-06-01T14:11:13;11.88;;;5.78;;
41568;SDS011;27283;52.504;13.358;2023-06-01T14:13:48;16.00;;;6.10;;
41568;SDS011;27283;52.504;13.358;2023-06-01T14:16:20;11.95;;;5.88;;
41568;SDS011;27283;52.504;13.358;2023-06-01T14:18:56;13.02;;;5.75;;
41568;SDS011;27283;52.504;13.358;2023-06-01T14:21:28;13.13;;;6.10;;
41568;SDS011;27283;52.504;13.358;2023-06-01T14:24:03;13.88;;;5.85;;
41568;SDS011;27283;52.504;13.358;2023-06-01T14:26:36;11.32;;;5.82;;
41568;SDS011;27283;52.504;13.358;2023-06-01T14:29:11;13.90;;;5.10;;
41568;SDS011;27283;52.504;13.358;2023-06-01T14:31:43;12.70;;;6.00;;
41568;SDS011;27283;52.504;13.358;2023-06-01T14:34:16;12.45;;;5.75;;
41568;SDS011;27283;52.504;13.358;2023-06-01T14:36:48;11.10;;;5.22;;
41568;SDS011;27283;52.504;13.358;2023-06-01T14:39:21;12.63;;;5.80;;
41568;SDS011;27283;52.504;13.358;2023-06-01T14:41:53;18.30;;;5.47;;
41568;SDS011;27283;52.504;13.358;2023-06-01T14:44:29;14.15;;;5.45;;
41568;SDS011;27283;52.504;13.358;2023-06-01T14:47:03;15.02;;;5.88;;
41568;SDS011;27283;52.504;13.358;2023-06-01T14:49:36;16.13;;;5.90;;
41568;SDS011;27283;52.504;13.358;2023-06-01T14:52:14;18.58;;;5.65;;
41568;SDS011;27283;52.504;13.358;2023-06-01T14:54:49;9.75;;;5.15;;
41568;SDS011;27283;52.504;13.358;2023-06-01T14:57:22;11.45;;;5.50;;
41568;SDS011;27283;52.504;13.358;2023-06-01T14:59:57;14.50;;;5.05;;
41568;SDS011;27283;52.504;13.358;2023-06-01T15:02:32;14.68;;;5.63;;
41568;SDS011;27283;52.504;13.358;2023-06-01T15:05:08;9.85;;;5.38;;
41568;SDS011;27283;52.504;13.358;2023-06-01T15:07:42;11.60;;;5.10;;
41568;SDS011;27283;52.504;13.358;2023-06-01T15:10:18;14.93;;;5.53;;
41568;SDS011;27283;52.504;13.358;2023-06-01T15:12:51;12.65;;;5.22;;
41568;SDS011;27283;52.504;13.358;2023-06-01T15:15:27;12.52;;;5.40;;
41568;SDS011;27283;52.504;13.358;2023-06-01T15:17:59;12.38;;;5.70;;
41568;SDS011;27283;52.504;13.358;2023-06-01T15:20:34;16.40;;;6.40;;
41568;SDS011;27283;52.504;13.358;2023-06-01T15:23:06;11.80;;;5.32;;
41568;SDS011;27283;52.504;13.358;2023-06-01T15:25:39;14.95;;;5.18;;
41568;SDS011;27283;52.504;13.358;2023-06-01T15:28:16;13.18;;;5.00;;
41568;SDS011;27283;52.504;13.358;2023-06-01T15:30:58;13.35;;;5.45;;
41568;SDS011;27283;52.504;13.358;2023-06-01T15:33:32;15.13;;;5.13;;